Time;durP1;ratioP1;P1;durP2;ratioP2;P2;SDS_P1;SDS_P2;PMS_P1;PMS_P2;Temp;Humidity;BMP_temperature;BMP_pressure;BME280_temperature;BME280_humidity;BME280_pressure;Samples;Min_cycle;Max_cycle;Signal;HPM_P1;HPM_P2
2022/11/11 00:01:58;;;;;;;77.28;50.72;;;14.20;1.00;;;;;;5031738;28;20022;-62
2022/11/11 00:04:23;;;;;;;82.32;48.38;;;14.20;1.00;;;;;;5031547;28;20160;-62
2022/11/11 00:06:49;;;;;;;74.63;50.17;;;14.20;1.00;;;;;;5041086;28;20473;-62
2022/11/11 00:09:15;;;;;;;74.68;48.40;;;14.20;1.00;;;;;;5036338;28;20104;-62
2022/11/11 00:11:41;;;;;;;74.15;48.65;;;14.20;1.00;;;;;;5027974;28;20101;-62
2022/11/11 00:14:07;;;;;;;72.13;48.05;;;14.20;1.00;;;;;;5024836;28;20113;-62
2022/11/11 00:25:04;;;;;;;76.78;49.78;;;14.20;1.00;;;;;;5031508;28;20434;-62
2022/11/11 00:27:30;;;;;;;82.47;52.15;;;14.20;1.00;;;;;;5031618;28;20083;-62
2022/11/11 00:29:56;;;;;;;74.65;48.33;;;14.10;1.00;;;;;;5031216;28;20475;-62
2022/11/11 00:32:21;;;;;;;76.88;49.42;;;14.20;1.00;;;;;;5031112;28;20109;-62
2022/11/11 00:37:33;;;;;;;79.05;50.80;;;14.20;1.00;;;;;;5031371;28;20033;-62
2022/11/11 00:40:01;;;;;;;67.45;46.20;;;14.10;1.00;;;;;;5025072;28;20036;-62
2022/11/11 00:42:27;;;;;;;70.95;47.45;;;14.00;1.00;;;;;;5029899;28;20026;-62
2022/11/11 00:44:53;;;;;;;75.00;51.03;;;14.00;1.00;;;;;;5030862;28;20390;-62
2022/11/11 00:52:58;;;;;;;70.22;48.70;;;14.00;1.00;;;;;;5021024;28;20053;-62
2022/11/11 00:55:24;;;;;;;64.45;46.13;;;14.00;1.00;;;;;;5034451;28;20408;-62
2022/11/11 00:57:49;;;;;;;68.68;48.25;;;14.10;1.00;;;;;;5034481;28;20025;-62
2022/11/11 01:00:15;;;;;;;71.40;46.72;;;14.00;1.00;;;;;;5034668;28;20036;-62
2022/11/11 01:02:41;;;;;;;73.60;48.70;;;14.10;1.00;;;;;;5034630;28;20383;-62
2022/11/11 01:05:07;;;;;;;69.78;47.78;;;14.00;1.00;;;;;;5034472;28;20048;-62
2022/11/11 01:07:32;;;;;;;70.75;48.42;;;14.10;1.00;;;;;;5034220;28;20025;-62
2022/11/11 01:09:58;;;;;;;69.63;48.55;;;13.90;1.00;;;;;;5034580;28;20087;-62
2022/11/11 01:12:23;;;;;;;61.08;44.65;;;14.00;1.00;;;;;;5034346;28;20120;-62
2022/11/11 01:14:49;;;;;;;66.60;47.85;;;14.00;1.00;;;;;;5034507;28;20025;-62
2022/11/11 01:17:14;;;;;;;70.93;46.88;;;14.00;1.00;;;;;;5034502;28;20371;-62
2022/11/11 01:19:40;;;;;;;68.93;46.08;;;14.00;1.00;;;;;;5034476;28;20022;-62
2022/11/11 01:22:05;;;;;;;66.63;45.25;;;14.00;1.00;;;;;;5030472;28;20100;-62
2022/11/11 01:24:31;;;;;;;65.57;45.42;;;13.90;1.00;;;;;;5034134;28;20013;-62
2022/11/11 01:26:57;;;;;;;66.35;46.15;;;14.00;1.00;;;;;;5034043;28;20095;-62
2022/11/11 01:29:22;;;;;;;60.08;43.20;;;13.90;1.00;;;;;;5036378;28;20041;-61
2022/11/11 01:31:48;;;;;;;60.10;44.63;;;14.00;1.00;;;;;;5033302;28;20025;-62
2022/11/11 01:34:13;;;;;;;63.15;42.83;;;13.90;1.00;;;;;;5037504;28;20390;-62
2022/11/11 01:36:39;;;;;;;64.00;43.75;;;13.90;1.00;;;;;;5043130;28;20025;-62
2022/11/11 01:39:04;;;;;;;62.28;43.97;;;13.90;1.00;;;;;;5044020;28;20474;-62
2022/11/11 01:41:33;;;;;;;59.33;42.33;;;13.90;1.00;;;;;;5035649;28;20036;-62
2022/11/11 01:44:14;;;;;;;66.00;45.45;;;13.90;1.00;;;;;;5034986;28;20490;-62
2022/11/11 01:46:44;;;;;;;66.40;44.78;;;13.90;1.00;;;;;;5032053;28;20107;-59
2022/11/11 01:49:20;;;;;;;64.85;44.22;;;13.90;1.00;;;;;;5032641;28;20091;-62
2022/11/11 01:52:14;;;;;;;62.90;42.10;;;13.90;1.00;;;;;;5033799;28;20029;-62
2022/11/11 01:54:54;;;;;;;71.80;45.93;;;13.80;1.00;;;;;;5042651;28;20068;-62
2022/11/11 01:57:35;;;;;;;54.63;40.17;;;13.70;1.00;;;;;;5033676;28;20104;-62
2022/11/11 02:00:05;;;;;;;50.80;39.45;;;13.80;1.00;;;;;;5033573;28;20375;-62
2022/11/11 02:02:38;;;;;;;50.58;38.17;;;13.70;1.00;;;;;;5039403;28;20100;-62
2022/11/11 02:07:53;;;;;;;52.03;42.00;;;13.70;1.00;;;;;;5020949;28;20040;-62
2022/11/11 02:10:24;;;;;;;50.05;40.03;;;13.70;1.00;;;;;;5033318;28;20446;-62
2022/11/11 02:15:38;;;;;;;48.10;37.05;;;13.70;1.00;;;;;;5032760;28;20037;-62
2022/11/11 02:18:04;;;;;;;48.90;39.03;;;13.70;1.00;;;;;;5032256;28;20030;-62
2022/11/11 02:20:35;;;;;;;50.63;39.30;;;13.70;1.00;;;;;;5045803;28;20147;-62
2022/11/11 02:23:10;;;;;;;48.60;38.03;;;13.70;1.00;;;;;;5018870;28;20391;-62
2022/11/11 02:25:39;;;;;;;48.15;37.33;;;13.70;1.00;;;;;;5032924;28;20124;-62
2022/11/11 02:28:06;;;;;;;54.30;39.78;;;13.70;1.00;;;;;;5032263;28;20025;-62
2022/11/11 02:30:32;;;;;;;49.42;38.78;;;13.60;1.00;;;;;;5032466;28;20467;-62
2022/11/11 02:32:58;;;;;;;54.10;39.58;;;13.60;1.00;;;;;;5032168;28;20029;-62
2022/11/11 02:35:35;;;;;;;52.90;39.30;;;13.60;1.00;;;;;;5030784;28;20036;-62
2022/11/11 02:38:07;;;;;;;42.42;34.92;;;13.60;1.00;;;;;;5032077;28;20025;-62
2022/11/11 02:43:28;;;;;;;51.27;38.47;;;13.60;1.00;;;;;;5032376;28;20040;-62
2022/11/11 02:45:53;;;;;;;45.53;35.72;;;13.50;1.00;;;;;;5031083;28;20025;-62
2022/11/11 02:48:19;;;;;;;47.20;36.10;;;13.50;1.00;;;;;;5031387;28;20148;-62
2022/11/11 02:50:45;;;;;;;46.63;35.90;;;13.60;1.00;;;;;;5031501;28;20026;-62
2022/11/11 02:53:11;;;;;;;45.67;35.05;;;13.60;1.00;;;;;;5032930;28;20100;-62
2022/11/11 02:55:36;;;;;;;48.25;35.85;;;13.50;1.00;;;;;;5044119;28;20025;-62
2022/11/11 02:58:02;;;;;;;46.03;34.97;;;13.50;1.00;;;;;;5031728;28;20033;-62
2022/11/11 03:00:28;;;;;;;47.63;36.25;;;13.50;1.00;;;;;;5031320;28;20045;-62
2022/11/11 03:02:54;;;;;;;45.63;35.90;;;13.50;1.00;;;;;;5031850;28;20443;-62
2022/11/11 03:05:19;;;;;;;46.15;35.47;;;13.60;1.00;;;;;;5031530;28;20425;-62
2022/11/11 03:07:45;;;;;;;46.13;34.72;;;13.50;1.00;;;;;;5031755;28;20029;-62
2022/11/11 03:10:10;;;;;;;40.97;33.40;;;13.50;1.00;;;;;;5030322;28;20095;-62
2022/11/11 03:12:36;;;;;;;41.20;32.63;;;13.50;1.00;;;;;;5031050;28;20136;-62
2022/11/11 03:15:02;;;;;;;41.22;33.78;;;13.40;1.00;;;;;;5031207;28;20033;-62
2022/11/11 03:17:39;;;;;;;46.35;35.17;;;13.40;1.00;;;;;;5031093;28;20025;-62
2022/11/11 03:23:11;;;;;;;39.20;30.35;;;13.40;1.00;;;;;;5031750;28;20519;-62
2022/11/11 03:25:39;;;;;;;39.42;31.05;;;13.40;1.00;;;;;;5030881;28;20137;-62
2022/11/11 03:28:07;;;;;;;37.17;30.15;;;13.40;1.00;;;;;;5031131;28;20041;-62
2022/11/11 03:30:33;;;;;;;35.33;30.20;;;13.40;1.00;;;;;;5030891;28;20045;-62
2022/11/11 03:33:00;;;;;;;38.90;29.70;;;13.40;1.00;;;;;;5031753;28;20040;-62
2022/11/11 03:35:26;;;;;;;38.00;30.35;;;13.40;1.00;;;;;;5031549;28;20110;-62
2022/11/11 03:40:36;;;;;;;41.40;32.25;;;13.40;1.00;;;;;;5031401;28;20036;-62
2022/11/11 03:43:02;;;;;;;37.58;29.77;;;13.40;1.00;;;;;;5031656;28;20022;-62
2022/11/11 03:45:27;;;;;;;34.15;27.55;;;13.40;1.00;;;;;;5031419;28;20022;-62
2022/11/11 03:47:53;;;;;;;34.67;28.73;;;13.40;1.00;;;;;;5031411;28;20413;-62
2022/11/11 03:50:21;;;;;;;33.85;28.98;;;13.40;1.00;;;;;;5031434;28;20029;-62
2022/11/11 03:52:47;;;;;;;36.53;28.05;;;13.30;1.00;;;;;;5031381;28;20018;-62
2022/11/11 03:55:13;;;;;;;36.00;28.40;;;13.40;1.00;;;;;;5045071;28;20025;-62
2022/11/11 03:57:45;;;;;;;32.85;28.45;;;13.30;1.00;;;;;;5031768;28;20017;-62
2022/11/11 04:00:16;;;;;;;33.45;28.30;;;13.30;1.00;;;;;;5031268;28;20013;-62
2022/11/11 04:10:59;;;;;;;35.67;27.25;;;13.30;1.00;;;;;;5019266;28;20048;-62
2022/11/11 04:16:10;;;;;;;37.10;28.00;;;13.30;1.00;;;;;;5020101;28;20118;-62
2022/11/11 04:21:42;;;;;;;32.55;26.60;;;13.30;1.00;;;;;;5033058;28;20087;-62
2022/11/11 04:26:54;;;;;;;37.83;28.77;;;13.20;1.00;;;;;;5034994;28;20044;-62
2022/11/11 04:29:29;;;;;;;31.30;25.55;;;13.00;1.00;;;;;;5034900;28;20033;-62
2022/11/11 04:34:40;;;;;;;32.20;27.35;;;13.10;1.00;;;;;;5022114;28;20095;-62
2022/11/11 04:37:07;;;;;;;34.17;27.52;;;13.10;1.00;;;;;;5034815;28;20036;-62
2022/11/11 04:42:28;;;;;;;30.63;27.17;;;13.20;1.00;;;;;;5031030;28;20344;-62
2022/11/11 04:47:56;;;;;;;30.13;26.92;;;13.00;1.00;;;;;;5034957;28;20099;-61
2022/11/11 04:50:27;;;;;;;27.58;24.33;;;13.10;1.00;;;;;;5027201;28;20070;-62
2022/11/11 04:52:53;;;;;;;32.10;27.10;;;13.10;1.00;;;;;;5031939;28;20036;-62
2022/11/11 04:58:03;;;;;;;31.67;26.00;;;13.00;1.00;;;;;;5034545;28;20052;-62
2022/11/11 05:00:28;;;;;;;29.42;25.42;;;13.00;1.00;;;;;;5033151;28;20029;-62
2022/11/11 05:03:14;;;;;;;28.38;25.15;;;13.00;1.00;;;;;;5034450;28;20025;-62
2022/11/11 05:11:11;;;;;;;30.20;25.25;;;13.00;1.00;;;;;;5034289;28;20128;-62
2022/11/11 05:21:56;;;;;;;26.25;22.70;;;12.90;1.00;;;;;;5034519;28;20025;-62
2022/11/11 05:27:06;;;;;;;24.23;21.77;;;12.90;1.00;;;;;;5034461;28;20114;-62
2022/11/11 05:29:32;;;;;;;24.08;21.20;;;12.90;1.00;;;;;;5034128;28;20088;-62
2022/11/11 05:31:57;;;;;;;23.27;20.77;;;12.90;1.00;;;;;;5033532;28;20057;-62
2022/11/11 05:34:23;;;;;;;24.80;21.38;;;12.90;1.00;;;;;;5032282;28;20021;-62
2022/11/11 05:36:48;;;;;;;23.85;21.25;;;12.80;1.00;;;;;;5033827;28;20394;-62
2022/11/11 05:39:14;;;;;;;22.92;20.42;;;12.80;1.00;;;;;;5034132;28;20021;-62
2022/11/11 05:41:40;;;;;;;23.70;21.25;;;12.90;1.00;;;;;;5034191;28;20109;-62
2022/11/11 05:44:05;;;;;;;23.15;20.50;;;12.80;1.00;;;;;;5033610;28;20367;-61
2022/11/11 05:46:31;;;;;;;22.88;20.48;;;12.80;1.00;;;;;;5033806;28;20162;-62
2022/11/11 05:49:14;;;;;;;20.75;18.55;;;12.80;1.00;;;;;;5031812;28;20140;-61
2022/11/11 05:51:40;;;;;;;21.00;18.70;;;12.80;1.00;;;;;;5033810;28;20045;-61
2022/11/11 05:54:06;;;;;;;20.10;18.00;;;12.70;1.00;;;;;;5042470;28;20031;-62
2022/11/11 05:56:31;;;;;;;21.38;19.00;;;12.70;1.00;;;;;;5038627;28;20029;-62
2022/11/11 05:58:57;;;;;;;21.00;18.80;;;12.80;1.00;;;;;;5033298;28;20082;-61
2022/11/11 06:01:23;;;;;;;23.63;18.13;;;12.80;1.00;;;;;;5033546;28;20446;-62
2022/11/11 06:03:48;;;;;;;22.35;19.95;;;12.80;1.00;;;;;;5032476;28;20104;-62
2022/11/11 06:06:14;;;;;;;20.25;18.17;;;12.70;1.00;;;;;;5033458;28;20352;-62
2022/11/11 06:08:40;;;;;;;20.05;17.95;;;12.70;1.00;;;;;;5033129;28;20033;-61
2022/11/11 06:11:05;;;;;;;25.52;20.50;;;12.70;1.00;;;;;;5033296;28;20059;-62
2022/11/11 06:13:31;;;;;;;20.25;18.25;;;12.70;1.00;;;;;;5035271;28;20053;-62
2022/11/11 06:15:58;;;;;;;21.42;17.67;;;12.70;1.00;;;;;;5031706;28;20518;-62
2022/11/11 06:18:24;;;;;;;19.90;17.92;;;12.80;1.00;;;;;;5036784;28;20506;-62
2022/11/11 06:20:57;;;;;;;21.20;18.23;;;12.70;1.00;;;;;;5031354;28;20108;-62
2022/11/11 06:23:24;;;;;;;20.67;18.48;;;12.70;1.00;;;;;;5031599;28;20541;-61
2022/11/11 06:28:34;;;;;;;21.80;17.83;;;12.60;1.00;;;;;;5033142;28;20395;-62
2022/11/11 06:31:00;;;;;;;20.60;17.08;;;12.60;1.00;;;;;;5031861;28;20029;-61
2022/11/11 06:33:25;;;;;;;21.33;17.95;;;12.60;1.00;;;;;;5031601;28;20029;-61
2022/11/11 06:35:51;;;;;;;20.75;18.70;;;12.60;1.00;;;;;;5032635;28;20061;-62
2022/11/11 06:38:17;;;;;;;19.55;17.38;;;12.70;1.00;;;;;;5032476;28;20439;-62
2022/11/11 06:40:43;;;;;;;19.33;17.17;;;12.70;1.00;;;;;;5030579;28;20025;-62
2022/11/11 06:43:09;;;;;;;20.88;17.15;;;12.70;1.00;;;;;;5018674;28;20467;-61
2022/11/11 06:45:35;;;;;;;23.25;19.02;;;12.70;1.00;;;;;;5032781;28;20025;-61
2022/11/11 06:48:05;;;;;;;20.25;17.92;;;12.80;1.00;;;;;;5030809;28;20080;-61
2022/11/11 06:50:34;;;;;;;20.77;18.13;;;12.70;1.00;;;;;;5032456;28;20044;-62
2022/11/11 06:53:09;;;;;;;19.02;17.02;;;12.70;1.00;;;;;;5032099;28;20033;-61
2022/11/11 06:55:35;;;;;;;24.00;19.10;;;12.70;1.00;;;;;;5032086;28;20493;-61
2022/11/11 06:58:27;;;;;;;26.23;17.67;;;12.70;1.00;;;;;;5032316;28;20030;-61
2022/11/11 07:00:52;;;;;;;19.65;16.83;;;12.60;1.00;;;;;;5030359;28;20040;-62
2022/11/11 07:03:20;;;;;;;18.58;16.40;;;12.60;1.00;;;;;;5032247;28;20101;-61
2022/11/11 07:05:46;;;;;;;21.52;17.00;;;12.60;1.00;;;;;;5032429;28;20426;-61
2022/11/11 07:08:15;;;;;;;17.58;15.77;;;12.60;1.00;;;;;;5032106;28;20098;-62
2022/11/11 07:10:44;;;;;;;18.77;15.43;;;12.70;1.00;;;;;;5032443;28;20026;-62
2022/11/11 07:13:10;;;;;;;18.60;15.23;;;12.70;1.00;;;;;;5032233;28;20121;-62
2022/11/11 07:15:36;;;;;;;17.10;15.40;;;12.70;1.00;;;;;;5031991;28;20570;-61
2022/11/11 07:18:02;;;;;;;17.05;14.75;;;12.80;1.00;;;;;;5032465;28;20025;-61
2022/11/11 07:20:28;;;;;;;16.40;14.27;;;12.80;1.00;;;;;;5032096;28;20028;-62
2022/11/11 07:22:53;;;;;;;15.70;14.13;;;12.70;1.00;;;;;;5032200;28;20112;-62
2022/11/11 07:25:19;;;;;;;18.77;15.68;;;12.70;1.00;;;;;;5031689;28;20034;-62
2022/11/11 07:27:45;;;;;;;16.42;14.73;;;12.80;1.00;;;;;;5030765;28;20124;-61
2022/11/11 07:30:44;;;;;;;18.50;15.13;;;12.80;1.00;;;;;;5029485;28;20033;-61
2022/11/11 07:33:10;;;;;;;16.80;14.88;;;12.90;1.00;;;;;;5026788;28;20044;-62
2022/11/11 07:35:35;;;;;;;19.35;16.17;;;12.90;1.00;;;;;;5031812;28;20117;-61
2022/11/11 07:38:01;;;;;;;19.50;15.25;;;12.90;1.00;;;;;;5031670;28;20037;-61
2022/11/11 07:40:27;;;;;;;16.77;14.98;;;12.90;1.00;;;;;;5030536;28;20032;-61
2022/11/11 07:42:52;;;;;;;17.40;15.20;;;13.00;1.00;;;;;;5031910;28;20024;-62
2022/11/11 07:45:18;;;;;;;19.65;16.42;;;13.00;1.00;;;;;;5031877;28;20033;-62
2022/11/11 07:47:43;;;;;;;17.17;15.40;;;13.00;1.00;;;;;;5028474;28;20084;-62
2022/11/11 07:50:09;;;;;;;16.95;15.25;;;12.90;1.00;;;;;;5020713;28;20060;-62
2022/11/11 07:52:36;;;;;;;17.23;15.43;;;13.00;1.00;;;;;;5030222;28;20471;-62
2022/11/11 07:55:02;;;;;;;18.45;15.65;;;13.10;1.00;;;;;;5031176;28;20167;-61
2022/11/11 07:57:27;;;;;;;21.23;16.83;;;13.10;1.00;;;;;;5031178;28;20160;-62
2022/11/11 07:59:53;;;;;;;18.70;15.70;;;13.10;1.00;;;;;;5031541;28;20091;-62
2022/11/11 08:02:18;;;;;;;17.52;15.38;;;13.10;1.00;;;;;;5031289;28;20029;-61
2022/11/11 08:04:44;;;;;;;21.88;16.05;;;13.00;1.00;;;;;;5031396;28;20490;-61
2022/11/11 08:07:10;;;;;;;17.77;14.50;;;13.00;1.00;;;;;;5031319;28;20021;-60
2022/11/11 08:09:36;;;;;;;19.17;15.82;;;13.00;1.00;;;;;;5030063;28;20037;-61
2022/11/11 08:14:46;;;;;;;18.92;16.10;;;13.20;1.00;;;;;;5040240;28;20167;-60
2022/11/11 08:17:11;;;;;;;17.38;15.43;;;13.20;1.00;;;;;;5045694;28;20100;-60
2022/11/11 08:19:37;;;;;;;21.65;14.98;;;13.20;1.00;;;;;;5041512;28;20028;-60
2022/11/11 08:22:03;;;;;;;19.83;15.20;;;13.20;1.00;;;;;;5044201;28;20028;-60
2022/11/11 08:24:29;;;;;;;16.45;13.40;;;13.30;1.00;;;;;;5043616;28;20029;-61
2022/11/11 08:26:54;;;;;;;17.35;14.60;;;13.20;1.00;;;;;;5032908;28;20025;-61
2022/11/11 08:29:20;;;;;;;16.80;14.35;;;13.30;1.00;;;;;;5031054;28;20040;-60
2022/11/11 08:31:46;;;;;;;19.48;13.98;;;13.40;1.00;;;;;;5031555;28;20486;-60
2022/11/11 08:34:12;;;;;;;19.77;14.68;;;13.40;1.00;;;;;;5031240;28;20017;-60
2022/11/11 08:36:38;;;;;;;22.33;14.52;;;13.50;1.00;;;;;;5031114;28;20025;-61
2022/11/11 08:39:04;;;;;;;17.25;14.10;;;13.40;1.00;;;;;;5030797;28;20041;-61
2022/11/11 08:41:30;;;;;;;18.60;14.95;;;13.40;1.00;;;;;;5030384;28;20026;-61
2022/11/11 08:43:55;;;;;;;15.98;14.15;;;13.50;1.00;;;;;;5026934;28;20248;-61
2022/11/11 08:46:22;;;;;;;19.27;15.13;;;13.50;1.00;;;;;;5029612;28;20021;-61
2022/11/11 08:48:48;;;;;;;15.82;14.02;;;13.50;1.00;;;;;;5030916;28;20418;-61
2022/11/11 08:51:14;;;;;;;21.92;15.85;;;13.60;1.00;;;;;;5030769;28;20024;-61
2022/11/11 08:53:40;;;;;;;16.08;14.52;;;13.70;1.00;;;;;;5031075;28;20040;-61
2022/11/11 08:56:06;;;;;;;18.65;14.80;;;13.70;1.00;;;;;;5030816;28;20021;-61
2022/11/11 08:58:32;;;;;;;17.45;15.48;;;13.80;1.00;;;;;;5030902;28;20010;-61
2022/11/11 09:00:57;;;;;;;21.80;15.82;;;13.70;1.00;;;;;;5030637;28;20037;-61
2022/11/11 09:03:23;;;;;;;22.70;17.08;;;13.80;1.00;;;;;;5030940;28;20025;-61
2022/11/11 09:05:49;;;;;;;20.83;15.90;;;13.80;1.00;;;;;;5030620;28;20028;-61
2022/11/11 09:08:15;;;;;;;23.40;15.85;;;13.80;1.00;;;;;;5032463;28;20091;-61
2022/11/11 09:10:41;;;;;;;19.08;15.98;;;13.90;1.00;;;;;;5034338;28;20087;-62
2022/11/11 09:13:07;;;;;;;16.80;14.63;;;13.90;1.00;;;;;;5034586;28;20382;-60
2022/11/11 09:15:33;;;;;;;19.60;16.58;;;13.90;1.00;;;;;;5066233;28;20371;-62
2022/11/11 09:18:00;;;;;;;17.98;15.60;;;14.00;1.00;;;;;;5033997;28;20159;-62
2022/11/11 09:20:26;;;;;;;19.10;15.13;;;14.00;1.00;;;;;;5034104;28;20474;-62
2022/11/11 09:22:52;;;;;;;19.17;15.73;;;14.00;1.00;;;;;;5033854;28;20032;-63
2022/11/11 09:25:18;;;;;;;17.17;14.82;;;14.10;1.00;;;;;;5032590;28;20029;-64
2022/11/11 09:27:43;;;;;;;18.17;15.38;;;14.10;1.00;;;;;;5033871;28;20079;-62
2022/11/11 09:30:10;;;;;;;16.95;15.15;;;14.20;1.00;;;;;;5033845;28;20454;-61
2022/11/11 09:32:36;;;;;;;18.65;15.30;;;14.20;1.00;;;;;;5034041;28;20026;-62
2022/11/11 09:35:03;;;;;;;16.55;13.52;;;14.20;1.00;;;;;;5033947;28;20104;-61
2022/11/11 09:37:28;;;;;;;19.83;14.48;;;14.20;1.00;;;;;;5020123;28;20032;-62
2022/11/11 09:39:57;;;;;;;17.85;14.75;;;14.30;1.00;;;;;;5034187;28;20029;-61
2022/11/11 09:42:52;;;;;;;15.73;14.13;;;14.30;1.00;;;;;;5033835;28;20372;-61
2022/11/11 09:45:44;;;;;;;18.73;15.90;;;14.30;1.00;;;;;;5032321;28;20439;-61
2022/11/11 09:48:18;;;;;;;18.65;16.20;;;14.30;1.00;;;;;;5033510;28;20103;-61
2022/11/11 09:50:53;;;;;;;15.02;13.43;;;14.40;1.00;;;;;;5033852;28;20068;-61
2022/11/11 09:53:48;;;;;;;15.30;13.50;;;14.50;1.00;;;;;;5033785;28;20480;-61
2022/11/11 09:56:18;;;;;;;18.83;14.00;;;14.50;1.00;;;;;;5018800;28;20386;-61
2022/11/11 09:59:04;;;;;;;17.48;15.57;;;14.50;1.00;;;;;;5033482;28;20439;-61
2022/11/11 10:01:43;;;;;;;17.58;14.70;;;14.60;1.00;;;;;;5033488;28;20550;-61
2022/11/11 10:04:24;;;;;;;13.65;11.77;;;14.60;1.00;;;;;;5021272;28;20473;-61
2022/11/11 10:06:56;;;;;;;15.02;13.45;;;14.60;1.00;;;;;;5032065;28;20032;-61
2022/11/11 10:09:40;;;;;;;14.18;12.73;;;14.70;1.00;;;;;;5032088;28;20048;-61
2022/11/11 10:12:16;;;;;;;20.48;14.27;;;14.70;1.00;;;;;;5031918;28;20379;-61
2022/11/11 10:14:45;;;;;;;16.90;14.77;;;14.70;1.00;;;;;;5033209;28;20040;-61
2022/11/11 10:17:20;;;;;;;15.18;13.57;;;14.70;1.00;;;;;;5033887;28;20441;-61
2022/11/11 10:19:48;;;;;;;17.02;14.43;;;14.70;1.00;;;;;;5031923;28;20160;-61
2022/11/11 10:22:22;;;;;;;15.85;14.02;;;14.80;1.00;;;;;;5034520;28;20017;-61
2022/11/11 10:25:22;;;;;;;14.38;12.95;;;14.80;1.00;;;;;;5033903;28;20340;-62
2022/11/11 10:27:51;;;;;;;15.15;13.27;;;14.90;1.00;;;;;;5019451;28;20546;-62
2022/11/11 10:30:24;;;;;;;17.58;13.50;;;14.90;1.00;;;;;;5043505;28;20056;-62
2022/11/11 10:33:18;;;;;;;16.90;15.10;;;14.90;1.00;;;;;;5044757;28;20574;-61
2022/11/11 10:35:46;;;;;;;15.90;14.20;;;14.90;1.00;;;;;;5031775;28;20040;-62
2022/11/11 10:38:20;;;;;;;16.00;14.32;;;14.90;1.00;;;;;;5032334;28;20029;-60
2022/11/11 10:40:52;;;;;;;16.75;14.95;;;14.90;1.00;;;;;;5032521;28;20053;-60
2022/11/11 10:43:27;;;;;;;18.92;16.25;;;15.00;1.00;;;;;;5032625;28;20017;-60
2022/11/11 10:46:12;;;;;;;18.48;16.20;;;15.00;1.00;;;;;;5031196;28;20079;-60
2022/11/11 10:48:38;;;;;;;;;;;15.10;1.00;;;;;;5019925;28;20056;-60
2022/11/11 10:51:05;;;;;;;18.77;15.27;;;15.10;1.00;;;;;;5032326;28;19905;-60
2022/11/11 10:53:37;;;;;;;16.13;14.45;;;15.10;1.00;;;;;;5032526;28;20419;-65
2022/11/11 10:56:16;;;;;;;17.50;15.02;;;15.30;1.00;;;;;;5032664;28;20025;-65
2022/11/11 10:58:52;;;;;;;16.63;14.63;;;15.30;1.00;;;;;;5032561;28;20033;-67
2022/11/11 11:01:42;;;;;;;18.63;15.82;;;15.30;1.00;;;;;;5032728;28;20022;-66
2022/11/11 11:04:21;;;;;;;19.88;16.13;;;15.30;1.00;;;;;;5031037;28;20108;-67
2022/11/11 11:06:49;;;;;;;17.63;15.82;;;15.30;1.00;;;;;;5018933;28;20080;-66
2022/11/11 11:09:33;;;;;;;20.60;16.35;;;15.40;1.00;;;;;;5032225;28;20487;-66
2022/11/11 11:12:06;;;;;;;16.00;14.45;;;15.40;1.00;;;;;;5032199;28;20017;-67
2022/11/11 11:14:36;;;;;;;16.17;14.57;;;15.40;1.00;;;;;;5031015;28;20032;-66
2022/11/11 11:17:12;;;;;;;14.65;13.18;;;15.40;1.00;;;;;;5023062;28;20124;-67
2022/11/11 11:19:37;;;;;;;16.38;14.68;;;15.50;1.00;;;;;;5032619;28;20033;-67
2022/11/11 11:22:03;;;;;;;14.45;13.00;;;15.50;1.00;;;;;;5035852;28;20029;-67
2022/11/11 11:24:31;;;;;;;15.25;13.75;;;15.50;1.00;;;;;;5021211;28;20069;-67
2022/11/11 11:26:59;;;;;;;16.92;14.88;;;15.60;1.00;;;;;;5036658;28;20026;-67
2022/11/11 11:29:38;;;;;;;16.48;14.77;;;15.50;1.00;;;;;;5023482;28;20065;-67
2022/11/11 11:32:31;;;;;;;18.90;15.48;;;15.60;1.00;;;;;;5036161;28;20025;-68
2022/11/11 11:34:57;;;;;;;16.58;14.45;;;15.60;1.00;;;;;;5037129;28;20391;-67
2022/11/11 11:37:24;;;;;;;16.02;14.23;;;15.60;1.00;;;;;;5031613;28;20025;-67
2022/11/11 11:40:06;;;;;;;16.45;14.75;;;15.70;1.00;;;;;;5030890;28;20048;-66
2022/11/11 11:42:37;;;;;;;15.68;13.18;;;15.70;1.00;;;;;;5030132;28;20359;-66
2022/11/11 11:45:29;;;;;;;15.88;14.02;;;15.70;1.00;;;;;;5031086;28;20368;-66
2022/11/11 11:48:13;;;;;;;16.17;14.60;;;15.80;1.00;;;;;;5028517;28;20399;-66
2022/11/11 11:50:49;;;;;;;17.63;13.45;;;15.90;1.00;;;;;;5031164;28;20091;-66
2022/11/11 11:53:53;;;;;;;16.25;14.38;;;15.90;1.00;;;;;;5031279;28;20414;-67
2022/11/11 11:56:34;;;;;;;16.08;14.25;;;16.00;1.00;;;;;;5031551;28;20131;-66
2022/11/11 11:59:02;;;;;;;16.42;14.73;;;16.10;1.00;;;;;;5031528;28;20026;-66
2022/11/11 12:01:42;;;;;;;20.48;14.52;;;16.10;1.00;;;;;;5028893;28;20140;-67
2022/11/11 12:04:31;;;;;;;20.13;16.02;;;16.20;1.00;;;;;;5021699;28;20026;-66
2022/11/11 12:07:20;;;;;;;17.33;14.43;;;16.30;1.00;;;;;;5019347;28;20041;-66
2022/11/11 12:10:09;;;;;;;18.13;16.23;;;16.40;1.00;;;;;;5017816;28;20037;-66
2022/11/11 12:12:49;;;;;;;16.92;15.25;;;16.40;1.00;;;;;;5031578;28;20029;-66
2022/11/11 12:15:36;;;;;;;16.13;14.43;;;16.50;1.00;;;;;;5031801;28;20109;-66
2022/11/11 12:18:34;;;;;;;17.55;14.43;;;16.60;1.00;;;;;;5029428;28;20104;-66
2022/11/11 12:21:10;;;;;;;19.10;16.60;;;16.70;1.00;;;;;;5031592;28;20034;-66
2022/11/11 12:24:00;;;;;;;18.25;16.17;;;16.70;1.00;;;;;;5031447;28;20021;-66
2022/11/11 12:26:54;;;;;;;18.88;16.25;;;16.80;1.00;;;;;;5032082;28;20036;-67
2022/11/11 12:29:47;;;;;;;19.57;17.13;;;16.90;1.00;;;;;;5030290;28;20048;-66
2022/11/11 12:32:46;;;;;;;21.35;18.35;;;16.90;1.00;;;;;;5020664;28;20268;-66
2022/11/11 12:35:17;;;;;;;19.25;17.15;;;17.00;1.00;;;;;;5017628;28;20069;-66
2022/11/11 12:37:57;;;;;;;22.15;18.38;;;17.00;1.00;;;;;;5031328;28;20025;-66
2022/11/11 12:40:38;;;;;;;21.33;18.17;;;17.10;1.00;;;;;;5017988;28;20036;-66
2022/11/11 12:43:04;;;;;;;19.90;17.25;;;17.20;1.00;;;;;;5034085;28;20582;-66
2022/11/11 12:45:47;;;;;;;19.40;16.27;;;17.20;1.00;;;;;;5035204;28;20072;-66
2022/11/11 12:48:24;;;;;;;20.02;17.02;;;17.30;1.00;;;;;;5034782;28;20048;-66
2022/11/11 12:51:14;;;;;;;18.42;16.52;;;17.30;1.00;;;;;;5035274;28;20417;-66
2022/11/11 12:53:49;;;;;;;16.83;15.07;;;17.40;1.00;;;;;;5024047;28;20166;-66
2022/11/11 12:56:36;;;;;;;20.20;14.75;;;17.40;1.00;;;;;;5035017;28;20030;-66
2022/11/11 12:59:17;;;;;;;16.02;14.23;;;17.40;1.00;;;;;;5023258;28;20101;-67
2022/11/11 13:02:09;;;;;;;17.95;14.93;;;17.40;1.00;;;;;;5035190;28;20029;-66
2022/11/11 13:04:52;;;;;;;19.85;16.27;;;17.40;1.00;;;;;;5034714;28;20033;-66
2022/11/11 13:07:27;;;;;;;18.42;15.55;;;17.40;1.00;;;;;;5034874;28;20025;-66
2022/11/11 13:10:05;;;;;;;;;;;17.40;1.00;;;;;;5035104;28;20479;-66
2022/11/11 13:12:57;;;;;;;16.75;14.68;;;17.40;1.00;;;;;;5034418;28;20000;-66
2022/11/11 13:15:24;;;;;;;18.25;14.95;;;17.40;1.00;;;;;;5034321;28;20132;-66
2022/11/11 13:17:51;;;;;;;17.05;15.18;;;17.40;1.00;;;;;;5034557;28;20029;-66
2022/11/11 13:20:31;;;;;;;19.85;16.35;;;17.50;1.00;;;;;;5034228;28;20029;-66
2022/11/11 13:22:57;;;;;;;21.25;15.70;;;17.40;1.00;;;;;;5022508;28;20340;-66
2022/11/11 13:25:27;;;;;;;20.65;15.57;;;17.40;1.00;;;;;;5034221;28;20037;-66
2022/11/11 13:27:58;;;;;;;16.65;14.23;;;17.50;1.00;;;;;;5033052;28;20394;-66
2022/11/11 13:30:24;;;;;;;16.90;15.10;;;17.50;1.00;;;;;;5033981;28;20044;-66
2022/11/11 13:33:08;;;;;;;17.30;15.43;;;17.50;1.00;;;;;;5034233;28;20029;-66
2022/11/11 13:35:56;;;;;;;21.00;17.30;;;17.50;1.00;;;;;;5034169;28;20033;-66
2022/11/11 13:38:32;;;;;;;17.45;15.60;;;17.50;1.00;;;;;;5022945;28;20032;-66
2022/11/11 13:41:02;;;;;;;21.13;16.92;;;17.50;1.00;;;;;;5034385;28;20379;-66
2022/11/11 13:43:45;;;;;;;20.33;16.95;;;17.50;1.00;;;;;;5033839;28;20027;-65
2022/11/11 13:46:26;;;;;;;23.30;18.45;;;17.60;1.00;;;;;;5033899;28;20038;-66
2022/11/11 13:48:52;;;;;;;21.48;17.65;;;17.60;1.00;;;;;;5033912;28;20056;-65
2022/11/11 13:51:23;;;;;;;20.88;18.33;;;17.60;1.00;;;;;;5033741;28;20021;-65
2022/11/11 13:53:49;;;;;;;19.55;17.48;;;17.60;1.00;;;;;;5033589;28;20378;-65
2022/11/11 13:56:31;;;;;;;20.13;18.10;;;17.60;1.00;;;;;;5033725;28;20100;-65
2022/11/11 14:02:19;;;;;;;23.83;20.33;;;17.60;1.00;;;;;;5022583;28;20506;-65
2022/11/11 14:05:07;;;;;;;25.20;20.55;;;17.50;1.00;;;;;;5061121;28;20117;-65
2022/11/11 14:07:47;;;;;;;22.85;20.13;;;17.50;1.00;;;;;;5033598;28;20025;-65
2022/11/11 14:10:16;;;;;;;23.25;20.58;;;17.50;1.00;;;;;;5033153;28;20120;-65
2022/11/11 14:12:48;;;;;;;22.15;19.65;;;17.40;1.00;;;;;;5032552;28;20029;-65
2022/11/11 14:15:32;;;;;;;23.48;20.98;;;17.40;1.00;;;;;;5033236;28;20025;-65
2022/11/11 14:17:57;;;;;;;24.98;21.05;;;17.40;1.00;;;;;;5033090;28;20103;-65
2022/11/11 14:20:43;;;;;;;24.52;20.98;;;17.40;1.00;;;;;;5022773;28;20495;-65
2022/11/11 14:23:32;;;;;;;24.70;21.23;;;17.40;1.00;;;;;;5033202;28;20487;-65